Terminal Aerodrome Forecast
Issued by NWS Lake Charles, LA

Home | Current Version | Previous Version | Text Only | Print | Product List | Glossary On
Versions: 1 2 3 4 5 6 7 8 9 10 11 12 13 14 15 16
090
FTUS44 KLCH 050729 AAA
TAFAEX
TAF AMD
KAEX 050729Z 0507/0606 02005KT P6SM VCSH OVC009
     FM051400 06006KT 4SM -SHRA BR OVC007
     FM052000 06007KT 2SM TSRA BR OVC005CB
     FM060100 VRB06KT 2SM TSRA BR OVC003CB
     FM060400 27004KT 4SM -RA BR OVC004=

USA.gov is the U.S. government's official web portal to all federal, state and local government web resources and services.